Time;durP1;ratioP1;P1;durP2;ratioP2;P2;SDS_P1;SDS_P2;PMS_P1;PMS_P2;Temp;Humidity;BMP_temperature;BMP_pressure;BME280_temperature;BME280_humidity;BME280_pressure;Samples;Min_cycle;Max_cycle;Signal;HPM_P1;HPM_P2
2021/10/29 00:00:05;;;;;;;32.77;29.53;;;;;;;;;;5083251;28;24505;-59
2021/10/29 00:02:30;;;;;;;30.47;27.33;;;;;;;;;;5083915;28;25020;-59
2021/10/29 00:04:57;;;;;;;30.07;27.07;;;;;;;;;;5073888;28;24418;-60
2021/10/29 00:07:22;;;;;;;30.15;27.15;;;;;;;;;;5080178;28;25299;-59
2021/10/29 00:09:48;;;;;;;30.87;27.70;;;;;;;;;;5084713;28;24513;-59
2021/10/29 00:12:13;;;;;;;31.77;28.67;;;;;;;;;;5073457;28;24419;-59
2021/10/29 00:14:39;;;;;;;32.30;27.50;;;;;;;;;;5074901;28;24442;-58
2021/10/29 00:17:04;;;;;;;32.05;28.77;;;;;;;;;;5075642;28;24442;-59
2021/10/29 00:19:29;;;;;;;31.67;28.43;;;;;;;;;;5076616;28;24423;-59
2021/10/29 00:21:55;;;;;;;30.43;27.23;;;;;;;;;;5082000;28;24505;-59
2021/10/29 00:24:20;;;;;;;32.23;28.07;;;;;;;;;;5078874;28;24414;-59
2021/10/29 00:26:45;;;;;;;31.93;28.73;;;;;;;;;;5084420;28;24491;-59
2021/10/29 00:29:10;;;;;;;29.47;26.53;;;;;;;;;;5076473;28;24415;-59
2021/10/29 00:31:35;;;;;;;31.70;28.07;;;;;;;;;;5077471;28;25359;-59
2021/10/29 00:34:00;;;;;;;31.27;27.98;;;;;;;;;;5085577;28;24501;-59
2021/10/29 00:36:26;;;;;;;32.80;29.40;;;;;;;;;;5080716;28;25010;-59
2021/10/29 00:38:51;;;;;;;31.10;27.97;;;;;;;;;;5086046;28;24423;-59
2021/10/29 00:41:16;;;;;;;34.30;28.77;;;;;;;;;;5080639;28;24770;-59
2021/10/29 00:43:41;;;;;;;32.25;29.20;;;;;;;;;;5086774;28;25906;-59
2021/10/29 00:46:06;;;;;;;32.43;29.23;;;;;;;;;;5087560;28;24624;-59
2021/10/29 00:48:33;;;;;;;30.73;27.73;;;;;;;;;;5082799;28;24521;-59
2021/10/29 00:50:58;;;;;;;32.03;28.63;;;;;;;;;;5075192;28;25116;-60
2021/10/29 00:53:24;;;;;;;32.42;29.23;;;;;;;;;;5084157;28;24571;-61
2021/10/29 00:55:49;;;;;;;30.13;27.10;;;;;;;;;;5079091;28;24796;-60
2021/10/29 00:58:15;;;;;;;32.13;28.73;;;;;;;;;;5074787;28;24487;-59
2021/10/29 01:00:40;;;;;;;35.17;31.63;;;;;;;;;;5086793;28;24410;-60
2021/10/29 01:03:05;;;;;;;33.30;29.80;;;;;;;;;;5084577;28;24426;-59
2021/10/29 01:05:30;;;;;;;33.50;30.27;;;;;;;;;;5074533;28;24426;-60
2021/10/29 01:07:57;;;;;;;33.83;30.27;;;;;;;;;;5079843;28;24449;-60
2021/10/29 01:10:22;;;;;;;33.58;30.17;;;;;;;;;;5072200;28;25118;-60
2021/10/29 01:12:47;;;;;;;32.30;29.10;;;;;;;;;;5076363;28;24564;-60
2021/10/29 01:15:12;;;;;;;32.00;28.70;;;;;;;;;;5086391;28;24426;-59
2021/10/29 01:17:38;;;;;;;32.80;29.47;;;;;;;;;;5090125;28;24441;-57
2021/10/29 01:20:04;;;;;;;34.13;30.63;;;;;;;;;;5080992;28;24969;-60
2021/10/29 01:22:29;;;;;;;34.45;30.95;;;;;;;;;;5074450;28;24475;-60
2021/10/29 01:24:55;;;;;;;33.95;30.55;;;;;;;;;;5087604;28;24410;-60
2021/10/29 01:27:21;;;;;;;33.33;30.03;;;;;;;;;;5078455;28;24407;-60
2021/10/29 01:29:47;;;;;;;34.23;30.83;;;;;;;;;;5083905;28;24417;-60
2021/10/29 01:32:12;;;;;;;34.58;31.20;;;;;;;;;;5078434;28;24440;-59
2021/10/29 01:34:39;;;;;;;34.27;30.97;;;;;;;;;;5081296;28;24516;-59
2021/10/29 01:37:04;;;;;;;33.58;30.33;;;;;;;;;;5086308;28;24479;-58
2021/10/29 01:39:30;;;;;;;32.97;29.67;;;;;;;;;;5069182;28;24520;-59
2021/10/29 01:41:55;;;;;;;33.50;30.20;;;;;;;;;;5085000;28;24501;-59
2021/10/29 01:44:20;;;;;;;34.37;30.87;;;;;;;;;;5085730;28;24509;-58
2021/10/29 01:46:45;;;;;;;33.33;29.90;;;;;;;;;;5082570;28;24510;-58
2021/10/29 01:49:10;;;;;;;33.70;30.23;;;;;;;;;;5072729;28;24909;-58
2021/10/29 01:51:35;;;;;;;31.53;28.23;;;;;;;;;;5082843;28;24406;-59
2021/10/29 01:54:01;;;;;;;33.00;29.70;;;;;;;;;;5075239;28;24437;-59
2021/10/29 01:56:26;;;;;;;31.67;28.47;;;;;;;;;;5070664;28;24460;-59
2021/10/29 01:58:51;;;;;;;31.92;28.77;;;;;;;;;;5088307;28;24410;-59
2021/10/29 02:01:17;;;;;;;34.43;30.83;;;;;;;;;;5083530;28;25028;-60
2021/10/29 02:03:42;;;;;;;33.40;29.92;;;;;;;;;;5076242;28;25026;-59
2021/10/29 02:06:07;;;;;;;33.40;29.83;;;;;;;;;;5079425;28;24833;-59
2021/10/29 02:08:33;;;;;;;33.55;30.30;;;;;;;;;;5076884;28;24467;-59
2021/10/29 02:10:58;;;;;;;33.65;30.25;;;;;;;;;;5086418;28;24482;-61
2021/10/29 02:13:23;;;;;;;34.88;31.38;;;;;;;;;;5084391;28;24964;-59
2021/10/29 02:15:48;;;;;;;33.97;30.80;;;;;;;;;;5082658;28;24411;-59
2021/10/29 02:18:14;;;;;;;35.07;31.77;;;;;;;;;;5077245;28;24479;-60
2021/10/29 02:20:39;;;;;;;34.83;31.40;;;;;;;;;;5084766;28;24525;-59
2021/10/29 02:23:04;;;;;;;35.33;31.73;;;;;;;;;;5073406;28;24987;-59
2021/10/29 02:25:30;;;;;;;33.83;30.33;;;;;;;;;;5073554;28;24406;-59
2021/10/29 02:27:55;;;;;;;31.70;28.70;;;;;;;;;;5085977;28;24487;-59
2021/10/29 02:30:20;;;;;;;34.57;31.00;;;;;;;;;;5082144;28;24769;-60
2021/10/29 02:32:45;;;;;;;36.83;33.23;;;;;;;;;;5081634;28;24518;-60
2021/10/29 02:35:10;;;;;;;33.07;29.67;;;;;;;;;;5074823;28;25230;-60
2021/10/29 02:37:36;;;;;;;35.72;31.92;;;;;;;;;;5084036;28;24994;-60
2021/10/29 02:40:02;;;;;;;33.63;30.20;;;;;;;;;;5077529;28;24967;-60
2021/10/29 02:42:27;;;;;;;33.17;29.83;;;;;;;;;;5078240;28;24999;-59
2021/10/29 02:44:52;;;;;;;34.67;31.10;;;;;;;;;;5082458;28;24410;-59
2021/10/29 02:47:17;;;;;;;34.03;30.53;;;;;;;;;;5074618;28;24464;-59
2021/10/29 02:49:42;;;;;;;33.90;30.52;;;;;;;;;;5074483;28;24417;-59
2021/10/29 02:52:08;;;;;;;35.50;31.80;;;;;;;;;;5081713;28;24967;-59
2021/10/29 02:54:33;;;;;;;37.97;34.00;;;;;;;;;;5082759;28;24410;-59
2021/10/29 02:56:58;;;;;;;35.20;31.70;;;;;;;;;;5067020;28;24427;-59
2021/10/29 02:59:23;;;;;;;36.17;32.57;;;;;;;;;;5081658;28;24418;-59
2021/10/29 03:01:48;;;;;;;35.63;31.83;;;;;;;;;;5075530;28;24530;-60
2021/10/29 03:04:14;;;;;;;37.77;33.97;;;;;;;;;;5071718;28;24573;-59
2021/10/29 03:06:39;;;;;;;37.67;33.88;;;;;;;;;;5074193;28;24528;-58
2021/10/29 03:09:04;;;;;;;34.90;31.30;;;;;;;;;;5070451;28;24503;-58
2021/10/29 03:11:29;;;;;;;36.90;33.07;;;;;;;;;;5074484;28;25042;-59
2021/10/29 03:13:54;;;;;;;39.27;35.37;;;;;;;;;;5089113;28;24417;-58
2021/10/29 03:16:19;;;;;;;36.60;32.88;;;;;;;;;;5086618;28;24414;-59
2021/10/29 03:18:45;;;;;;;35.87;32.17;;;;;;;;;;5078860;28;24414;-58
2021/10/29 03:21:10;;;;;;;38.40;34.50;;;;;;;;;;5080078;28;24433;-59
2021/10/29 03:23:35;;;;;;;35.35;31.77;;;;;;;;;;5070952;28;24425;-58
2021/10/29 03:26:00;;;;;;;36.87;32.97;;;;;;;;;;5073233;28;24426;-60
2021/10/29 03:28:26;;;;;;;38.45;34.38;;;;;;;;;;5086760;28;24464;-60
2021/10/29 03:30:51;;;;;;;37.97;34.07;;;;;;;;;;5077239;28;24488;-60
2021/10/29 03:33:17;;;;;;;38.20;34.30;;;;;;;;;;5080615;28;24429;-60
2021/10/29 03:35:42;;;;;;;39.08;35.22;;;;;;;;;;5078176;28;24417;-60
2021/10/29 03:40:44;;;;;;;38.13;34.30;;;;;;;;;;5075241;28;25351;-60
2021/10/29 03:43:18;;;;;;;40.35;36.35;;;;;;;;;;5082618;28;24407;-60
2021/10/29 03:45:52;;;;;;;38.50;34.70;;;;;;;;;;5069121;28;24505;-59
2021/10/29 03:48:20;;;;;;;41.53;37.33;;;;;;;;;;5077070;28;24519;-58
2021/10/29 03:51:13;;;;;;;40.40;36.47;;;;;;;;;;5076023;28;24565;-60
2021/10/29 03:56:00;;;;;;;40.25;36.35;;;;;;;;;;5076936;28;24554;-60
2021/10/29 03:58:26;;;;;;;41.22;36.92;;;;;;;;;;5081282;28;24443;-59
2021/10/29 04:00:51;;;;;;;36.80;32.90;;;;;;;;;;5074604;28;24795;-59
2021/10/29 04:03:16;;;;;;;41.00;36.77;;;;;;;;;;5077018;28;24522;-59
2021/10/29 04:05:42;;;;;;;40.25;35.95;;;;;;;;;;5080891;28;24402;-59
2021/10/29 04:08:09;;;;;;;40.43;36.30;;;;;;;;;;5079479;28;24419;-59
2021/10/29 04:10:39;;;;;;;41.33;37.05;;;;;;;;;;5075877;28;24728;-59
2021/10/29 04:13:04;;;;;;;40.17;35.88;;;;;;;;;;5080675;28;24421;-59
2021/10/29 04:15:29;;;;;;;38.50;34.60;;;;;;;;;;5078776;28;24492;-60
2021/10/29 04:17:55;;;;;;;40.87;36.77;;;;;;;;;;5076296;28;24511;-60
2021/10/29 04:20:21;;;;;;;37.60;33.60;;;;;;;;;;5086379;28;24521;-59
2021/10/29 04:22:46;;;;;;;39.77;33.83;;;;;;;;;;5080958;28;24422;-59
2021/10/29 04:25:12;;;;;;;37.85;33.78;;;;;;;;;;5085166;28;24406;-59
2021/10/29 04:27:43;;;;;;;41.03;36.10;;;;;;;;;;5080456;28;24489;-59
2021/10/29 04:30:13;;;;;;;36.13;32.33;;;;;;;;;;5083034;28;24973;-61
2021/10/29 04:32:38;;;;;;;39.40;35.20;;;;;;;;;;5082902;28;24470;-58
2021/10/29 04:35:04;;;;;;;36.50;32.70;;;;;;;;;;5078693;28;24422;-59
2021/10/29 04:37:29;;;;;;;38.43;34.43;;;;;;;;;;5075783;28;24515;-60
2021/10/29 04:39:56;;;;;;;41.77;37.53;;;;;;;;;;5085650;28;24434;-60
2021/10/29 04:42:21;;;;;;;37.30;33.40;;;;;;;;;;5080128;28;24448;-60
2021/10/29 04:44:47;;;;;;;40.10;35.70;;;;;;;;;;5084838;28;24419;-60
2021/10/29 04:47:12;;;;;;;40.00;35.90;;;;;;;;;;5078084;28;24414;-59
2021/10/29 04:49:37;;;;;;;39.00;34.80;;;;;;;;;;5073647;28;24416;-59
2021/10/29 04:52:03;;;;;;;43.30;39.10;;;;;;;;;;5087697;28;24468;-60
2021/10/29 04:54:29;;;;;;;41.70;37.20;;;;;;;;;;5069744;28;24652;-60
2021/10/29 04:56:54;;;;;;;41.58;36.85;;;;;;;;;;5071836;28;24434;-59
2021/10/29 04:59:19;;;;;;;39.60;35.40;;;;;;;;;;5079267;28;24417;-59
2021/10/29 05:01:46;;;;;;;41.57;36.53;;;;;;;;;;5078471;28;24919;-59
2021/10/29 05:04:12;;;;;;;39.13;35.05;;;;;;;;;;5081289;28;24422;-59
2021/10/29 05:06:37;;;;;;;41.43;37.30;;;;;;;;;;5084504;28;24421;-59
2021/10/29 05:09:02;;;;;;;41.55;37.45;;;;;;;;;;5077087;28;24409;-59
2021/10/29 05:11:27;;;;;;;41.33;37.30;;;;;;;;;;5080586;28;24447;-60
2021/10/29 05:13:52;;;;;;;42.07;38.07;;;;;;;;;;5071412;28;24410;-60
2021/10/29 05:16:18;;;;;;;40.83;36.73;;;;;;;;;;5074414;28;24410;-60
2021/10/29 05:18:43;;;;;;;38.50;34.70;;;;;;;;;;5085390;28;24411;-60
2021/10/29 05:21:08;;;;;;;43.42;39.03;;;;;;;;;;5084975;28;24428;-60
2021/10/29 05:23:34;;;;;;;42.58;38.20;;;;;;;;;;5075035;28;24583;-59
2021/10/29 05:25:59;;;;;;;40.10;36.20;;;;;;;;;;5086800;28;24429;-59
2021/10/29 05:28:24;;;;;;;40.70;36.65;;;;;;;;;;5075424;28;24428;-59
2021/10/29 05:30:49;;;;;;;43.53;39.13;;;;;;;;;;5069093;28;24426;-59
2021/10/29 05:33:14;;;;;;;42.95;38.65;;;;;;;;;;5079844;28;24564;-59
2021/10/29 05:35:40;;;;;;;42.80;38.67;;;;;;;;;;5082355;28;24421;-60
2021/10/29 05:38:05;;;;;;;43.08;38.88;;;;;;;;;;5075500;28;24419;-60
2021/10/29 05:40:30;;;;;;;44.70;40.20;;;;;;;;;;5075700;28;24848;-60
2021/10/29 05:42:55;;;;;;;43.50;39.20;;;;;;;;;;5079544;28;24425;-58
2021/10/29 05:45:20;;;;;;;43.00;38.80;;;;;;;;;;5077095;28;24823;-58
2021/10/29 05:47:45;;;;;;;43.70;39.50;;;;;;;;;;5083569;28;24414;-60
2021/10/29 05:50:11;;;;;;;43.88;39.47;;;;;;;;;;5074276;28;24458;-59
2021/10/29 05:52:40;;;;;;;45.60;41.10;;;;;;;;;;5067605;28;24687;-60
2021/10/29 05:55:19;;;;;;;45.60;41.00;;;;;;;;;;5070655;28;24411;-59
2021/10/29 05:57:47;;;;;;;40.97;36.80;;;;;;;;;;5072333;28;24471;-59
2021/10/29 06:00:14;;;;;;;43.72;39.50;;;;;;;;;;5076085;28;25025;-59
2021/10/29 06:02:39;;;;;;;45.23;40.73;;;;;;;;;;5070431;28;24465;-60
2021/10/29 06:05:05;;;;;;;45.00;40.60;;;;;;;;;;5076003;28;24992;-59
2021/10/29 06:07:30;;;;;;;41.03;36.83;;;;;;;;;;5068449;28;24423;-59
2021/10/29 06:09:56;;;;;;;42.67;38.28;;;;;;;;;;5071799;28;25092;-60
2021/10/29 06:12:21;;;;;;;41.08;36.75;;;;;;;;;;5067631;28;24520;-60
2021/10/29 06:14:47;;;;;;;41.28;37.08;;;;;;;;;;5072079;28;24499;-59
2021/10/29 06:17:17;;;;;;;41.72;37.33;;;;;;;;;;5073980;28;25579;-59
2021/10/29 06:19:42;;;;;;;42.75;38.15;;;;;;;;;;5073021;28;24418;-59
2021/10/29 06:22:25;;;;;;;42.08;37.78;;;;;;;;;;5072475;28;24983;-59
2021/10/29 06:24:51;;;;;;;41.42;36.72;;;;;;;;;;5067530;28;24433;-59
2021/10/29 06:29:45;;;;;;;41.60;37.20;;;;;;;;;;5065598;28;24421;-59
2021/10/29 06:32:11;;;;;;;43.50;38.90;;;;;;;;;;5078792;28;24434;-60
2021/10/29 06:34:36;;;;;;;41.07;36.60;;;;;;;;;;5071393;28;24967;-59
2021/10/29 06:37:02;;;;;;;43.70;39.00;;;;;;;;;;5078180;28;24429;-59
2021/10/29 06:39:28;;;;;;;40.90;36.47;;;;;;;;;;5073976;28;24413;-59
2021/10/29 06:41:54;;;;;;;42.87;38.47;;;;;;;;;;5076329;28;24414;-59
2021/10/29 06:46:50;;;;;;;42.33;37.72;;;;;;;;;;5067493;28;24429;-59
2021/10/29 07:00:18;;;;;;;38.00;34.10;;;;;;;;;;5078210;28;24406;-60
2021/10/29 07:40:43;;;;;;;41.30;37.10;;;;;;;;;;5063261;28;24401;-60
2021/10/29 07:43:12;;;;;;;39.92;35.88;;;;;;;;;;5078546;28;24417;-60
2021/10/29 07:45:37;;;;;;;38.10;34.20;;;;;;;;;;5062051;28;24504;-60
2021/10/29 07:48:03;;;;;;;39.73;35.53;;;;;;;;;;5059244;28;24981;-60
2021/10/29 07:50:28;;;;;;;39.47;35.38;;;;;;;;;;5063859;28;24483;-60
2021/10/29 07:52:55;;;;;;;40.17;36.08;;;;;;;;;;5075969;28;24432;-59
2021/10/29 07:55:21;;;;;;;37.40;33.60;;;;;;;;;;5074566;28;24425;-60
2021/10/29 07:57:47;;;;;;;38.13;34.33;;;;;;;;;;5061064;28;24478;-60
2021/10/29 08:00:13;;;;;;;37.65;33.75;;;;;;;;;;5064270;28;24399;-60
2021/10/29 08:02:38;;;;;;;38.53;34.53;;;;;;;;;;5068897;28;24484;-60
2021/10/29 08:05:03;;;;;;;36.72;32.92;;;;;;;;;;5063116;28;24991;-60
2021/10/29 08:07:30;;;;;;;37.47;33.72;;;;;;;;;;5074434;28;24414;-60
2021/10/29 08:09:55;;;;;;;38.93;34.83;;;;;;;;;;5069170;28;24417;-60
2021/10/29 08:12:20;;;;;;;38.77;34.77;;;;;;;;;;5060588;28;24423;-60
2021/10/29 08:14:46;;;;;;;38.07;34.17;;;;;;;;;;5078186;28;24445;-60
2021/10/29 08:17:12;;;;;;;39.97;35.78;;;;;;;;;;5080740;28;24422;-60
2021/10/29 08:19:37;;;;;;;36.67;33.08;;;;;;;;;;5077969;28;24414;-60
2021/10/29 08:22:04;;;;;;;37.00;33.20;;;;;;;;;;5081992;28;24421;-60
2021/10/29 08:24:30;;;;;;;39.78;35.58;;;;;;;;;;5072278;28;24402;-60
2021/10/29 08:26:59;;;;;;;38.08;34.28;;;;;;;;;;5080855;28;24408;-60
2021/10/29 08:29:25;;;;;;;40.45;36.55;;;;;;;;;;5079908;28;24503;-60
2021/10/29 08:31:51;;;;;;;37.13;33.43;;;;;;;;;;5075928;28;24907;-60
2021/10/29 08:34:17;;;;;;;38.35;34.55;;;;;;;;;;5081935;28;24414;-60
2021/10/29 08:36:44;;;;;;;35.70;32.10;;;;;;;;;;5079894;28;24819;-60
2021/10/29 08:39:11;;;;;;;36.72;33.10;;;;;;;;;;5075397;28;24429;-61
2021/10/29 08:41:38;;;;;;;35.70;32.10;;;;;;;;;;5063594;28;24488;-59
2021/10/29 08:44:05;;;;;;;36.50;32.90;;;;;;;;;;5067346;28;24398;-58
2021/10/29 08:46:31;;;;;;;40.17;35.90;;;;;;;;;;5063970;28;25198;-60
2021/10/29 08:48:57;;;;;;;34.83;31.33;;;;;;;;;;5063627;28;24386;-60
2021/10/29 08:51:22;;;;;;;35.65;32.15;;;;;;;;;;5072625;28;25013;-59
2021/10/29 08:53:48;;;;;;;35.80;32.20;;;;;;;;;;5073522;28;24432;-59
2021/10/29 08:56:13;;;;;;;34.03;30.63;;;;;;;;;;5085006;28;24482;-60
2021/10/29 08:58:58;;;;;;;35.50;31.83;;;;;;;;;;5084082;28;24429;-59
2021/10/29 09:01:23;;;;;;;35.75;32.10;;;;;;;;;;5073908;28;24418;-60
2021/10/29 09:03:53;;;;;;;33.45;30.23;;;;;;;;;;5063624;28;24444;-60
2021/10/29 09:08:58;;;;;;;33.70;30.30;;;;;;;;;;5085634;28;24416;-59
2021/10/29 09:34:07;;;;;;;33.08;29.77;;;;;;;;;;5066122;28;24428;-59
2021/10/29 09:36:40;;;;;;;33.35;29.90;;;;;;;;;;5062121;28;24572;-60
2021/10/29 09:39:09;;;;;;;33.30;30.00;;;;;;;;;;5065330;28;24418;-59
2021/10/29 09:41:35;;;;;;;30.83;27.92;;;;;;;;;;5075291;28;25014;-59
2021/10/29 09:44:05;;;;;;;31.52;28.42;;;;;;;;;;5066144;28;24464;-59
2021/10/29 09:46:33;;;;;;;31.92;28.80;;;;;;;;;;5062687;28;24448;-59
2021/10/29 09:49:06;;;;;;;33.13;29.92;;;;;;;;;;5059221;28;24410;-58
2021/10/29 09:51:46;;;;;;;33.50;30.00;;;;;;;;;;5063482;28;24509;-59
2021/10/29 09:54:15;;;;;;;35.70;32.20;;;;;;;;;;5065496;28;25042;-60
2021/10/29 09:56:53;;;;;;;32.47;29.38;;;;;;;;;;5083674;28;24761;-59
2021/10/29 09:59:19;;;;;;;31.40;28.40;;;;;;;;;;5083854;28;24422;-59
2021/10/29 10:01:44;;;;;;;32.03;28.83;;;;;;;;;;5076588;28;24433;-59
2021/10/29 10:04:10;;;;;;;30.27;27.37;;;;;;;;;;5083083;28;24405;-59
2021/10/29 10:06:39;;;;;;;32.20;29.10;;;;;;;;;;5082461;28;24406;-60
2021/10/29 10:09:08;;;;;;;31.73;28.73;;;;;;;;;;5085987;28;25023;-59
2021/10/29 10:11:34;;;;;;;32.83;29.60;;;;;;;;;;5085869;28;24971;-60
2021/10/29 10:13:59;;;;;;;32.50;29.10;;;;;;;;;;5071260;28;24415;-60
2021/10/29 10:16:26;;;;;;;32.27;29.17;;;;;;;;;;5070889;28;24443;-60
2021/10/29 10:18:52;;;;;;;33.15;29.90;;;;;;;;;;5079800;28;24542;-60
2021/10/29 10:21:20;;;;;;;33.08;29.77;;;;;;;;;;5083124;28;24587;-60
2021/10/29 10:23:48;;;;;;;31.33;28.35;;;;;;;;;;5071246;28;24915;-59
2021/10/29 10:29:19;;;;;;;32.00;28.63;;;;;;;;;;5074903;28;24409;-60
2021/10/29 10:46:32;;;;;;;30.83;27.83;;;;;;;;;;5067950;28;24470;-60
2021/10/29 10:53:56;;;;;;;31.77;28.67;;;;;;;;;;5068877;28;24421;-60
2021/10/29 10:56:35;;;;;;;30.83;27.83;;;;;;;;;;5067429;28;24469;-60
2021/10/29 10:59:29;;;;;;;29.65;26.55;;;;;;;;;;5070035;28;24479;-58
2021/10/29 11:02:17;;;;;;;29.45;26.55;;;;;;;;;;5064570;28;24528;-59
2021/10/29 11:05:09;;;;;;;28.15;25.45;;;;;;;;;;5073352;28;24456;-60
2021/10/29 11:10:24;;;;;;;30.52;27.63;;;;;;;;;;5045788;28;24872;-61
2021/10/29 11:12:50;;;;;;;28.70;26.00;;;;;;;;;;5075806;28;24410;-60
2021/10/29 11:15:18;;;;;;;28.48;25.58;;;;;;;;;;5073747;28;24429;-60
2021/10/29 11:17:45;;;;;;;29.23;26.52;;;;;;;;;;5081857;28;24797;-60
2021/10/29 11:20:11;;;;;;;27.35;24.38;;;;;;;;;;5076678;28;24419;-57
2021/10/29 11:22:44;;;;;;;31.08;28.10;;;;;;;;;;5071464;28;24403;-60
2021/10/29 11:25:11;;;;;;;32.55;29.35;;;;;;;;;;5075617;28;25037;-60
2021/10/29 11:27:40;;;;;;;30.25;27.45;;;;;;;;;;5069873;28;24780;-59
2021/10/29 11:30:05;;;;;;;28.00;25.20;;;;;;;;;;5069147;28;25200;-59
2021/10/29 11:32:31;;;;;;;26.33;23.73;;;;;;;;;;5068332;28;24484;-59
2021/10/29 11:34:59;;;;;;;27.83;25.13;;;;;;;;;;5070847;28;24434;-58
2021/10/29 11:37:24;;;;;;;28.65;25.85;;;;;;;;;;5069682;28;24423;-59
2021/10/29 11:39:49;;;;;;;27.42;24.73;;;;;;;;;;5082761;28;24455;-59
2021/10/29 11:42:18;;;;;;;28.50;25.80;;;;;;;;;;5075211;28;25059;-60
2021/10/29 11:44:43;;;;;;;28.55;25.75;;;;;;;;;;5077495;28;24975;-60
2021/10/29 11:47:08;;;;;;;29.10;26.30;;;;;;;;;;5086367;28;24449;-59
2021/10/29 11:49:33;;;;;;;28.73;26.00;;;;;;;;;;5081654;28;24467;-60
2021/10/29 11:52:01;;;;;;;27.77;25.03;;;;;;;;;;5083193;28;24449;-60
2021/10/29 11:54:30;;;;;;;26.25;23.65;;;;;;;;;;5074231;28;24535;-60
2021/10/29 12:00:23;;;;;;;28.00;25.25;;;;;;;;;;5076573;28;24425;-60
2021/10/29 12:07:36;;;;;;;26.80;24.10;;;;;;;;;;5078263;28;24987;-60
2021/10/29 12:10:05;;;;;;;26.33;23.83;;;;;;;;;;5074633;28;24863;-60
2021/10/29 12:12:31;;;;;;;27.77;25.17;;;;;;;;;;5074530;28;24839;-59
2021/10/29 12:15:02;;;;;;;28.13;25.33;;;;;;;;;;5078283;28;24419;-60
2021/10/29 12:17:35;;;;;;;27.25;24.55;;;;;;;;;;5078945;28;25069;-59
2021/10/29 12:20:04;;;;;;;27.50;25.00;;;;;;;;;;5076196;28;24943;-60
2021/10/29 12:25:00;;;;;;;26.65;24.08;;;;;;;;;;5081347;28;24801;-60
2021/10/29 12:27:49;;;;;;;28.15;25.42;;;;;;;;;;5081248;28;24999;-59
2021/10/29 12:30:17;;;;;;;25.65;23.15;;;;;;;;;;5079840;28;24966;-58
2021/10/29 13:03:00;;;;;;;24.25;22.00;;;;;;;;;;5074146;28;24460;-60
2021/10/29 13:05:25;;;;;;;26.50;23.77;;;;;;;;;;5076498;28;24415;-60
2021/10/29 13:07:50;;;;;;;26.73;24.23;;;;;;;;;;5078117;28;24776;-60
2021/10/29 13:10:16;;;;;;;24.47;22.17;;;;;;;;;;5071719;28;24979;-60
2021/10/29 13:15:12;;;;;;;25.67;23.07;;;;;;;;;;5073098;28;24523;-60
2021/10/29 13:17:43;;;;;;;26.50;23.90;;;;;;;;;;5079287;28;24902;-60
2021/10/29 13:50:21;;;;;;;25.77;23.27;;;;;;;;;;5003095;28;24427;-60
2021/10/29 13:53:08;;;;;;;25.70;23.20;;;;;;;;;;5051861;28;24490;-59
2021/10/29 14:01:03;;;;;;;24.45;22.15;;;;;;;;;;5076336;28;24811;-60
2021/10/29 14:03:55;;;;;;;24.08;21.88;;;;;;;;;;5073927;28;24433;-60
2021/10/29 14:30:32;;;;;;;24.58;22.27;;;;;;;;;;5088331;28;24398;-60
2021/10/29 14:33:07;;;;;;;25.02;22.73;;;;;;;;;;5087729;28;24471;-60
2021/10/29 14:35:56;;;;;;;26.15;23.55;;;;;;;;;;5087689;28;24789;-60
2021/10/29 14:43:44;;;;;;;26.63;24.02;;;;;;;;;;5087308;28;24749;-60
2021/10/29 14:49:06;;;;;;;24.42;22.02;;;;;;;;;;5087377;28;24427;-60
2021/10/29 14:51:54;;;;;;;26.33;23.92;;;;;;;;;;5088021;28;24394;-59
2021/10/29 15:02:52;;;;;;;24.40;22.00;;;;;;;;;;5068203;28;24455;-60
2021/10/29 15:05:36;;;;;;;24.00;21.90;;;;;;;;;;5078897;28;24414;-60
2021/10/29 15:25:04;;;;;;;23.35;21.15;;;;;;;;;;5077690;28;24483;-59
2021/10/29 15:32:57;;;;;;;27.33;24.73;;;;;;;;;;5077573;28;24909;-59
2021/10/29 15:43:52;;;;;;;24.10;21.70;;;;;;;;;;5069081;28;24410;-60
2021/10/29 15:46:22;;;;;;;25.80;23.30;;;;;;;;;;5061526;28;24418;-59
2021/10/29 15:49:02;;;;;;;25.15;22.80;;;;;;;;;;5063844;28;24819;-59
2021/10/29 15:51:28;;;;;;;26.42;23.92;;;;;;;;;;5074743;28;24472;-60
2021/10/29 15:53:53;;;;;;;25.67;23.15;;;;;;;;;;5075101;28;24733;-60
2021/10/29 16:17:27;;;;;;;26.52;24.02;;;;;;;;;;5064421;28;24484;-59
2021/10/29 16:19:52;;;;;;;26.42;23.73;;;;;;;;;;5064812;28;24955;-60
2021/10/29 16:22:22;;;;;;;27.03;24.27;;;;;;;;;;5061689;28;24860;-60
2021/10/29 16:25:32;;;;;;;27.13;24.50;;;;;;;;;;5065072;28;24496;-58
2021/10/29 16:30:15;;;;;;;26.25;23.63;;;;;;;;;;5076691;28;24433;-60
2021/10/29 16:35:38;;;;;;;25.27;22.88;;;;;;;;;;5048867;28;24418;-60
2021/10/29 16:38:05;;;;;;;27.27;24.63;;;;;;;;;;5068971;28;24475;-60
2021/10/29 16:40:30;;;;;;;27.67;24.92;;;;;;;;;;5079285;28;24445;-60
2021/10/29 16:42:55;;;;;;;27.73;24.90;;;;;;;;;;5081330;28;24658;-58
2021/10/29 16:45:22;;;;;;;25.97;23.40;;;;;;;;;;5077195;28;24943;-60
2021/10/29 16:47:47;;;;;;;28.45;25.65;;;;;;;;;;5073520;28;24856;-59
2021/10/29 16:50:13;;;;;;;27.57;24.80;;;;;;;;;;5077722;28;25097;-59
2021/10/29 16:52:39;;;;;;;28.75;25.67;;;;;;;;;;5069941;28;25027;-59
2021/10/29 16:55:05;;;;;;;27.90;24.90;;;;;;;;;;5087658;28;24436;-60
2021/10/29 16:57:30;;;;;;;29.00;26.20;;;;;;;;;;5081453;28;24509;-59
2021/10/29 16:59:55;;;;;;;28.53;25.73;;;;;;;;;;5063962;28;24604;-59
2021/10/29 17:02:21;;;;;;;30.10;27.10;;;;;;;;;;5075847;28;24410;-60
2021/10/29 17:04:46;;;;;;;28.77;25.88;;;;;;;;;;5067341;28;24596;-59
2021/10/29 17:07:11;;;;;;;29.45;26.38;;;;;;;;;;5070374;28;24425;-59
2021/10/29 17:09:36;;;;;;;30.17;27.13;;;;;;;;;;5079381;28;24994;-60
2021/10/29 17:12:01;;;;;;;31.37;28.10;;;;;;;;;;5069900;28;24454;-60
2021/10/29 17:14:27;;;;;;;31.63;28.43;;;;;;;;;;5072774;28;24462;-60
2021/10/29 17:16:52;;;;;;;32.00;28.90;;;;;;;;;;5072291;28;24418;-59
2021/10/29 17:19:18;;;;;;;29.70;26.50;;;;;;;;;;5071630;28;25016;-60
2021/10/29 17:21:43;;;;;;;31.00;28.00;;;;;;;;;;5066527;28;24426;-59
2021/10/29 17:24:08;;;;;;;30.00;27.10;;;;;;;;;;5073084;28;25028;-59
2021/10/29 17:26:35;;;;;;;29.73;26.83;;;;;;;;;;5083146;28;24441;-59
2021/10/29 17:29:00;;;;;;;29.60;26.50;;;;;;;;;;5086330;28;24713;-59
2021/10/29 17:31:26;;;;;;;28.23;25.33;;;;;;;;;;5087439;28;24967;-61
2021/10/29 17:33:51;;;;;;;29.33;26.33;;;;;;;;;;5066263;28;24421;-60
2021/10/29 17:36:17;;;;;;;29.60;26.80;;;;;;;;;;5064689;28;24430;-60
2021/10/29 17:38:43;;;;;;;27.88;25.08;;;;;;;;;;5070142;28;24522;-59
2021/10/29 17:41:08;;;;;;;28.50;25.70;;;;;;;;;;5067855;28;25124;-59
2021/10/29 17:43:33;;;;;;;27.90;25.20;;;;;;;;;;5066674;28;24410;-59
2021/10/29 17:45:58;;;;;;;28.33;25.60;;;;;;;;;;5074069;28;25049;-59
2021/10/29 17:48:24;;;;;;;30.30;27.30;;;;;;;;;;5076517;28;24430;-60
2021/10/29 17:50:52;;;;;;;28.67;25.90;;;;;;;;;;5073994;28;24463;-60
2021/10/29 17:53:17;;;;;;;29.10;26.20;;;;;;;;;;5070717;28;25050;-59
2021/10/29 17:55:42;;;;;;;29.80;26.90;;;;;;;;;;5088644;28;25030;-60
2021/10/29 17:58:07;;;;;;;27.63;25.03;;;;;;;;;;5081972;28;24805;-60
2021/10/29 18:00:32;;;;;;;28.50;25.70;;;;;;;;;;5065806;28;24865;-60
2021/10/29 18:02:58;;;;;;;28.13;25.43;;;;;;;;;;5069784;28;24572;-60
2021/10/29 18:05:23;;;;;;;28.97;26.17;;;;;;;;;;5077636;28;24414;-60
2021/10/29 18:07:54;;;;;;;28.45;25.65;;;;;;;;;;5074116;28;24963;-60
2021/10/29 18:10:19;;;;;;;28.40;25.60;;;;;;;;;;5103445;28;24406;-61
2021/10/29 18:12:44;;;;;;;29.23;26.42;;;;;;;;;;5079696;28;24487;-63
2021/10/29 18:15:10;;;;;;;27.93;25.13;;;;;;;;;;5085209;28;24535;-59
2021/10/29 18:17:36;;;;;;;25.92;23.35;;;;;;;;;;5082281;28;24457;-60
2021/10/29 18:20:01;;;;;;;26.10;23.40;;;;;;;;;;5074517;28;24453;-60
2021/10/29 18:22:26;;;;;;;25.40;22.90;;;;;;;;;;5082359;28;25019;-60
2021/10/29 18:24:51;;;;;;;23.75;21.40;;;;;;;;;;5084396;28;24418;-60
2021/10/29 18:27:18;;;;;;;23.50;21.20;;;;;;;;;;5081502;28;24414;-59
2021/10/29 18:29:44;;;;;;;22.92;20.73;;;;;;;;;;5087311;28;24478;-59
2021/10/29 18:32:10;;;;;;;22.55;20.33;;;;;;;;;;5079749;28;25080;-60
2021/10/29 18:34:35;;;;;;;24.97;22.27;;;;;;;;;;5080078;28;24451;-59
2021/10/29 18:37:03;;;;;;;22.17;19.97;;;;;;;;;;5081152;28;25325;-59
2021/10/29 18:39:29;;;;;;;22.77;20.48;;;;;;;;;;5084248;28;24756;-59
2021/10/29 18:41:54;;;;;;;22.30;20.10;;;;;;;;;;5086747;28;25096;-60
2021/10/29 18:44:19;;;;;;;22.40;20.30;;;;;;;;;;5061994;28;24453;-59
2021/10/29 18:46:44;;;;;;;24.73;22.33;;;;;;;;;;5067210;28;24659;-60
2021/10/29 18:49:09;;;;;;;21.07;19.07;;;;;;;;;;5071922;28;24418;-59
2021/10/29 18:51:36;;;;;;;22.90;20.70;;;;;;;;;;5064965;28;25004;-60
2021/10/29 18:54:01;;;;;;;23.05;20.70;;;;;;;;;;5077132;28;24426;-60
2021/10/29 18:56:28;;;;;;;23.50;21.20;;;;;;;;;;5058940;28;24790;-60
2021/10/29 18:58:53;;;;;;;22.48;20.38;;;;;;;;;;5073970;28;24453;-60
2021/10/29 19:01:18;;;;;;;21.80;19.50;;;;;;;;;;5069465;28;24449;-59